Time;durP1;ratioP1;P1;durP2;ratioP2;P2;SDS_P1;SDS_P2;PMS_P1;PMS_P2;Temp;Humidity;BMP_temperature;BMP_pressure;BME280_temperature;BME280_humidity;BME280_pressure;Samples;Min_cycle;Max_cycle;Signal;HPM_P1;HPM_P2
2021/08/03 00:02:15;;;;;;;7.73;4.47;;;;;;;;;;5069857;28;20032;-66
2021/08/03 00:04:41;;;;;;;9.73;5.07;;;;;;;;;;5069373;28;20639;-65
2021/08/03 00:07:09;;;;;;;11.30;4.90;;;;;;;;;;5070205;28;20031;-65
2021/08/03 00:09:34;;;;;;;7.20;4.78;;;;;;;;;;5069361;28;20096;-65
2021/08/03 00:12:00;;;;;;;9.60;4.88;;;;;;;;;;5062739;28;21134;-66
2021/08/03 00:14:25;;;;;;;7.93;5.60;;;;;;;;;;5083285;22;20136;-86
2021/08/03 00:16:50;;;;;;;7.65;5.13;;;;;;;;;;5087207;28;20054;-87
2021/08/03 00:19:16;;;;;;;11.50;5.72;;;;;;;;;;5070665;28;20395;-87
2021/08/03 00:21:41;;;;;;;7.07;4.88;;;;;;;;;;5072721;28;20441;-87
2021/08/03 00:24:06;;;;;;;14.98;5.53;;;;;;;;;;5071888;28;20093;-87
2021/08/03 00:26:32;;;;;;;9.07;5.45;;;;;;;;;;5071608;28;20024;-86
2021/08/03 00:28:57;;;;;;;8.10;5.32;;;;;;;;;;5065990;28;20218;-86
2021/08/03 00:31:23;;;;;;;8.18;5.55;;;;;;;;;;5050451;28;20070;-87
2021/08/03 00:33:50;;;;;;;10.50;5.50;;;;;;;;;;5068361;28;20025;-87
2021/08/03 00:36:15;;;;;;;10.43;5.30;;;;;;;;;;5079756;28;20024;-87
2021/08/03 00:38:41;;;;;;;11.23;5.80;;;;;;;;;;5069169;28;20028;-87
2021/08/03 00:41:18;;;;;;;14.30;5.93;;;;;;;;;;5050684;28;20081;-86
2021/08/03 00:43:44;;;;;;;7.63;5.18;;;;;;;;;;5070371;28;20485;-86
2021/08/03 00:46:09;;;;;;;12.05;5.25;;;;;;;;;;5054669;28;20031;-86
2021/08/03 00:48:34;;;;;;;14.70;5.93;;;;;;;;;;5069901;28;20369;-88
2021/08/03 00:50:59;;;;;;;9.32;5.57;;;;;;;;;;5057324;28;20270;-87
2021/08/03 00:53:25;;;;;;;10.35;5.43;;;;;;;;;;5071339;28;20028;-87
2021/08/03 00:55:51;;;;;;;15.75;5.15;;;;;;;;;;5073628;28;20020;-86
2021/08/03 00:58:16;;;;;;;9.98;5.25;;;;;;;;;;5068670;28;20024;-87
2021/08/03 01:00:41;;;;;;;17.40;5.72;;;;;;;;;;5054337;28;20030;-86
2021/08/03 01:03:07;;;;;;;8.32;5.03;;;;;;;;;;5054080;28;20017;-87
2021/08/03 01:05:41;;;;;;;10.13;6.57;;;;;;;;;;5065192;28;20067;-87
2021/08/03 01:08:11;;;;;;;17.70;6.82;;;;;;;;;;5052798;28;20020;-87
2021/08/03 01:10:50;;;;;;;9.50;6.05;;;;;;;;;;5072435;28;20098;-87
2021/08/03 01:13:26;;;;;;;12.10;6.68;;;;;;;;;;5053805;28;20025;-87
2021/08/03 01:15:54;;;;;;;11.13;7.05;;;;;;;;;;5077939;28;20078;-88
2021/08/03 01:18:31;;;;;;;13.40;6.90;;;;;;;;;;5052937;28;20119;-87
2021/08/03 01:21:25;;;;;;;13.63;7.50;;;;;;;;;;5052379;28;20063;-87
2021/08/03 01:24:10;;;;;;;10.68;6.85;;;;;;;;;;5072599;28;20020;-86
2021/08/03 01:26:44;;;;;;;10.65;6.70;;;;;;;;;;5070507;28;20052;-87
2021/08/03 01:29:10;;;;;;;11.80;6.63;;;;;;;;;;5059926;28;20394;-87
2021/08/03 01:31:41;;;;;;;12.85;6.93;;;;;;;;;;5055764;28;20021;-87
2021/08/03 01:34:08;;;;;;;13.93;7.45;;;;;;;;;;5084445;28;20081;-88
2021/08/03 01:36:34;;;;;;;18.42;7.32;;;;;;;;;;5072727;28;20464;-87
2021/08/03 01:39:00;;;;;;;11.07;7.47;;;;;;;;;;5073332;28;20474;-87
2021/08/03 01:41:29;;;;;;;13.05;7.45;;;;;;;;;;5071543;28;20021;-87
2021/08/03 01:43:55;;;;;;;12.10;7.18;;;;;;;;;;5084655;28;20023;-87
2021/08/03 01:46:21;;;;;;;15.35;7.03;;;;;;;;;;5061461;28;20526;-87
2021/08/03 01:48:47;;;;;;;10.38;6.47;;;;;;;;;;5052796;28;20496;-87
2021/08/03 01:51:13;;;;;;;15.43;7.70;;;;;;;;;;5070738;28;20024;-87
2021/08/03 01:53:39;;;;;;;18.10;7.45;;;;;;;;;;5071026;28;20478;-87
2021/08/03 01:56:05;;;;;;;24.63;8.13;;;;;;;;;;5052805;28;20063;-87
2021/08/03 01:58:31;;;;;;;14.02;7.95;;;;;;;;;;5069397;28;20028;-87
2021/08/03 02:00:56;;;;;;;11.23;7.88;;;;;;;;;;5055750;28;20054;-88
2021/08/03 02:03:22;;;;;;;12.85;8.43;;;;;;;;;;5063130;28;20023;-87
2021/08/03 02:05:49;;;;;;;14.82;8.05;;;;;;;;;;5071949;28;20032;-88
2021/08/03 02:08:17;;;;;;;13.73;7.00;;;;;;;;;;5076958;28;20031;-87
2021/08/03 02:10:44;;;;;;;12.23;7.25;;;;;;;;;;5074681;28;20020;-87
2021/08/03 02:13:09;;;;;;;13.75;7.47;;;;;;;;;;5071977;28;20069;-88
2021/08/03 02:15:34;;;;;;;14.77;8.10;;;;;;;;;;5071736;28;20020;-87
2021/08/03 02:17:59;;;;;;;11.75;7.18;;;;;;;;;;5072776;28;20178;-87
2021/08/03 02:20:25;;;;;;;12.35;8.32;;;;;;;;;;5091501;28;20066;-87
2021/08/03 02:22:50;;;;;;;16.35;7.93;;;;;;;;;;5074943;28;20031;-87
2021/08/03 02:25:15;;;;;;;10.95;7.68;;;;;;;;;;5052881;28;20027;-87
2021/08/03 02:27:41;;;;;;;17.55;8.93;;;;;;;;;;5051777;28;20017;-86
2021/08/03 02:30:07;;;;;;;24.02;9.75;;;;;;;;;;5061808;28;20035;-87
2021/08/03 02:32:37;;;;;;;10.65;7.30;;;;;;;;;;5063709;28;20017;-87
2021/08/03 02:35:03;;;;;;;14.30;7.68;;;;;;;;;;5085806;28;20024;-87
2021/08/03 02:37:32;;;;;;;16.27;7.55;;;;;;;;;;5071323;28;20031;-87
2021/08/03 02:39:59;;;;;;;13.68;8.15;;;;;;;;;;5071519;28;20119;-87
2021/08/03 02:42:24;;;;;;;10.23;7.38;;;;;;;;;;5073415;28;20443;-87
2021/08/03 02:44:51;;;;;;;13.77;8.00;;;;;;;;;;5072919;28;20020;-87
2021/08/03 02:47:25;;;;;;;13.65;8.45;;;;;;;;;;5075826;28;20377;-87
2021/08/03 02:49:52;;;;;;;14.90;8.00;;;;;;;;;;5081643;28;20368;-88
2021/08/03 02:52:18;;;;;;;13.70;7.95;;;;;;;;;;5053591;28;20111;-87
2021/08/03 02:54:44;;;;;;;15.73;8.65;;;;;;;;;;5051738;28;20044;-87
2021/08/03 02:57:10;;;;;;;13.48;8.57;;;;;;;;;;5051736;28;20036;-87
2021/08/03 02:59:38;;;;;;;13.98;8.90;;;;;;;;;;5069287;28;20024;-87
2021/08/03 03:02:08;;;;;;;15.77;8.05;;;;;;;;;;5091754;28;20032;-87
2021/08/03 03:04:33;;;;;;;;;;;;;;;;;;5057619;28;20539;-87
2021/08/03 03:07:02;;;;;;;13.88;7.50;;;;;;;;;;5069602;28;20418;-87
2021/08/03 03:09:29;;;;;;;14.20;8.88;;;;;;;;;;5055688;28;20020;-87
2021/08/03 03:11:56;;;;;;;13.05;8.77;;;;;;;;;;5089295;28;20024;-87
2021/08/03 03:14:22;;;;;;;15.48;8.18;;;;;;;;;;5073062;28;20031;-87
2021/08/03 03:16:49;;;;;;;12.63;7.63;;;;;;;;;;5071031;28;20024;-87
2021/08/03 03:19:18;;;;;;;14.07;9.43;;;;;;;;;;5062541;28;20028;-86
2021/08/03 03:21:45;;;;;;;16.15;8.27;;;;;;;;;;5067017;28;20024;-86
2021/08/03 03:24:11;;;;;;;11.98;7.88;;;;;;;;;;5072390;28;20483;-86
2021/08/03 03:26:37;;;;;;;16.42;8.13;;;;;;;;;;5070674;28;20123;-87
2021/08/03 03:29:03;;;;;;;18.45;9.20;;;;;;;;;;5070023;28;20031;-86
2021/08/03 03:31:29;;;;;;;18.05;8.60;;;;;;;;;;5070711;28;20471;-87
2021/08/03 03:33:55;;;;;;;15.90;9.07;;;;;;;;;;5063508;28;20105;-87
2021/08/03 03:36:24;;;;;;;14.48;9.05;;;;;;;;;;5071862;28;20023;-87
2021/08/03 03:38:49;;;;;;;15.70;8.95;;;;;;;;;;5054142;28;20111;-87
2021/08/03 03:41:14;;;;;;;17.30;9.55;;;;;;;;;;5058820;28;20028;-87
2021/08/03 03:43:39;;;;;;;14.52;8.43;;;;;;;;;;5089238;28;20061;-87
2021/08/03 03:46:12;;;;;;;19.42;10.05;;;;;;;;;;5072424;28;20016;-87
2021/08/03 03:48:47;;;;;;;16.13;8.82;;;;;;;;;;5069923;28;20103;-87
2021/08/03 03:51:16;;;;;;;19.42;9.00;;;;;;;;;;5073267;28;20025;-87
2021/08/03 03:53:43;;;;;;;16.70;9.37;;;;;;;;;;5067776;28;20056;-86
2021/08/03 03:56:08;;;;;;;16.85;8.65;;;;;;;;;;5069042;28;20706;-87
2021/08/03 03:58:36;;;;;;;20.10;8.50;;;;;;;;;;5059888;28;20016;-87
2021/08/03 04:01:01;;;;;;;13.68;8.02;;;;;;;;;;5089329;28;20060;-87
2021/08/03 04:03:28;;;;;;;15.70;8.20;;;;;;;;;;5064164;28;20051;-87
2021/08/03 04:05:53;;;;;;;16.80;8.88;;;;;;;;;;5055137;28;20031;-87
2021/08/03 04:08:19;;;;;;;22.40;9.02;;;;;;;;;;5081375;28;20391;-86
2021/08/03 04:10:45;;;;;;;20.45;9.13;;;;;;;;;;5069378;28;20032;-87
2021/08/03 04:13:11;;;;;;;19.45;9.82;;;;;;;;;;5069108;28;20391;-87
2021/08/03 04:15:37;;;;;;;16.88;9.55;;;;;;;;;;5053708;28;20031;-87
2021/08/03 04:18:02;;;;;;;13.85;8.77;;;;;;;;;;5052736;28;20391;-87
2021/08/03 04:20:28;;;;;;;13.10;8.77;;;;;;;;;;5070460;28;20025;-87
2021/08/03 04:22:53;;;;;;;18.05;8.98;;;;;;;;;;5071141;28;20031;-86
2021/08/03 04:25:18;;;;;;;15.10;8.40;;;;;;;;;;5088845;28;20019;-87
2021/08/03 04:27:56;;;;;;;16.52;8.27;;;;;;;;;;5061255;28;20040;-88
2021/08/03 04:30:22;;;;;;;14.38;8.77;;;;;;;;;;5075775;28;20085;-87
2021/08/03 04:32:47;;;;;;;17.60;9.38;;;;;;;;;;5110850;28;20055;-87
2021/08/03 04:35:13;;;;;;;14.82;8.93;;;;;;;;;;5094277;28;20020;-87
2021/08/03 04:37:39;;;;;;;12.52;7.90;;;;;;;;;;5091513;28;20028;-86
2021/08/03 04:40:05;;;;;;;18.85;9.07;;;;;;;;;;5106005;28;20051;-87
2021/08/03 04:42:30;;;;;;;15.18;7.88;;;;;;;;;;5071401;28;20025;-87
2021/08/03 04:44:55;;;;;;;14.65;8.35;;;;;;;;;;5054756;28;20033;-87
2021/08/03 04:47:20;;;;;;;15.65;7.50;;;;;;;;;;5059495;28;20021;-87
2021/08/03 04:49:46;;;;;;;12.88;7.65;;;;;;;;;;5055899;28;20016;-87
2021/08/03 04:52:11;;;;;;;10.98;7.15;;;;;;;;;;5075772;28;20073;-87
2021/08/03 04:54:36;;;;;;;15.23;7.47;;;;;;;;;;5053976;28;20354;-86
2021/08/03 04:57:01;;;;;;;10.77;7.80;;;;;;;;;;5053453;28;20031;-87
2021/08/03 04:59:27;;;;;;;15.10;8.88;;;;;;;;;;5058286;28;20025;-87
2021/08/03 05:01:53;;;;;;;13.52;7.65;;;;;;;;;;5077242;28;20024;-87
2021/08/03 05:04:18;;;;;;;13.10;7.38;;;;;;;;;;5074634;28;20032;-87
2021/08/03 05:06:43;;;;;;;14.20;7.20;;;;;;;;;;5092461;28;20482;-87
2021/08/03 05:09:09;;;;;;;10.65;6.97;;;;;;;;;;5055201;28;20351;-87
2021/08/03 05:11:35;;;;;;;11.32;6.60;;;;;;;;;;5056119;28;20051;-86
2021/08/03 05:14:00;;;;;;;12.95;7.13;;;;;;;;;;5076069;28;20109;-86
2021/08/03 05:16:26;;;;;;;12.50;7.53;;;;;;;;;;5063136;28;20036;-87
2021/08/03 05:18:51;;;;;;;17.23;6.95;;;;;;;;;;5053965;28;20306;-87
2021/08/03 05:21:20;;;;;;;12.85;6.95;;;;;;;;;;5070931;28;20016;-87
2021/08/03 05:23:45;;;;;;;12.45;6.60;;;;;;;;;;5070938;28;20013;-86
2021/08/03 05:26:11;;;;;;;16.33;7.53;;;;;;;;;;5087002;28;20073;-86
2021/08/03 05:28:36;;;;;;;13.07;6.68;;;;;;;;;;5057232;28;20074;-87
2021/08/03 05:31:01;;;;;;;9.98;6.95;;;;;;;;;;5052270;28;20144;-86
2021/08/03 05:33:27;;;;;;;18.35;7.80;;;;;;;;;;5061780;28;20401;-86
2021/08/03 05:35:52;;;;;;;13.93;6.85;;;;;;;;;;5070684;28;20047;-86
2021/08/03 05:38:18;;;;;;;13.30;7.50;;;;;;;;;;5063734;28;20035;-87
2021/08/03 05:40:46;;;;;;;12.93;6.90;;;;;;;;;;5062194;28;20027;-87
2021/08/03 05:43:11;;;;;;;13.23;7.85;;;;;;;;;;5063620;28;20028;-87
2021/08/03 05:45:37;;;;;;;11.80;7.13;;;;;;;;;;5070753;28;20020;-87
2021/08/03 05:48:02;;;;;;;13.85;7.45;;;;;;;;;;5063836;28;20081;-87
2021/08/03 05:50:28;;;;;;;16.70;7.50;;;;;;;;;;5051943;28;20028;-87
2021/08/03 05:52:53;;;;;;;13.95;7.60;;;;;;;;;;5071192;28;20047;-87
2021/08/03 05:55:18;;;;;;;13.00;6.90;;;;;;;;;;5078015;28;20472;-86
2021/08/03 05:57:43;;;;;;;16.00;7.55;;;;;;;;;;5077917;28;20047;-86
2021/08/03 06:00:09;;;;;;;10.57;6.93;;;;;;;;;;5070912;28;20012;-87
2021/08/03 06:02:35;;;;;;;14.20;7.25;;;;;;;;;;5084923;28;20008;-87
2021/08/03 06:05:00;;;;;;;17.50;7.82;;;;;;;;;;5061819;28;20354;-87
2021/08/03 06:07:27;;;;;;;15.27;8.30;;;;;;;;;;5080681;28;20025;-87
2021/08/03 06:09:56;;;;;;;14.45;8.38;;;;;;;;;;5063113;28;20104;-87
2021/08/03 06:12:23;;;;;;;15.93;7.40;;;;;;;;;;5072773;28;20020;-87
2021/08/03 06:14:52;;;;;;;11.20;7.10;;;;;;;;;;5098896;22;20031;-65
2021/08/03 06:17:18;;;;;;;13.40;8.10;;;;;;;;;;5077311;28;20082;-65
2021/08/03 06:19:47;;;;;;;12.40;7.55;;;;;;;;;;5076373;28;20023;-65
2021/08/03 06:22:12;;;;;;;16.60;7.88;;;;;;;;;;5081627;28;20020;-69
2021/08/03 06:24:39;;;;;;;16.00;7.80;;;;;;;;;;5079515;28;20160;-68
2021/08/03 06:27:12;;;;;;;14.68;7.93;;;;;;;;;;5085989;28;20056;-68
2021/08/03 06:29:38;;;;;;;14.18;7.03;;;;;;;;;;5083340;28;20024;-68
2021/08/03 06:32:04;;;;;;;13.20;6.70;;;;;;;;;;5076972;28;20111;-68
2021/08/03 06:34:29;;;;;;;16.27;7.05;;;;;;;;;;5083543;28;20062;-68
2021/08/03 06:36:54;;;;;;;11.23;6.40;;;;;;;;;;5077500;28;20069;-66
2021/08/03 06:39:19;;;;;;;17.83;6.30;;;;;;;;;;5072680;28;20325;-66
2021/08/03 06:41:45;;;;;;;19.88;6.70;;;;;;;;;;5079810;28;20278;-65
2021/08/03 06:44:13;;;;;;;10.35;5.93;;;;;;;;;;5082999;28;20384;-66
2021/08/03 06:46:39;;;;;;;16.90;6.57;;;;;;;;;;5089317;28;20028;-66
2021/08/03 06:49:06;;;;;;;11.55;6.28;;;;;;;;;;5091142;28;20329;-66
2021/08/03 06:51:32;;;;;;;12.50;6.55;;;;;;;;;;5083270;28;20091;-66
2021/08/03 06:54:00;;;;;;;11.18;6.50;;;;;;;;;;5072126;28;20132;-67
2021/08/03 06:56:27;;;;;;;12.88;6.50;;;;;;;;;;5074262;28;20089;-66
2021/08/03 06:58:58;;;;;;;9.05;6.45;;;;;;;;;;5080332;28;20392;-66
2021/08/03 07:01:27;;;;;;;12.20;6.32;;;;;;;;;;5086432;28;20395;-66
2021/08/03 07:03:55;;;;;;;12.82;6.43;;;;;;;;;;5083000;28;20104;-66
2021/08/03 07:06:20;;;;;;;13.63;5.78;;;;;;;;;;5082848;28;20021;-66
2021/08/03 07:08:46;;;;;;;11.70;6.30;;;;;;;;;;5070964;28;20020;-67
2021/08/03 07:11:12;;;;;;;18.05;6.57;;;;;;;;;;5089602;28;20111;-66
2021/08/03 07:13:38;;;;;;;13.93;6.70;;;;;;;;;;5086129;28;20105;-67
2021/08/03 07:16:03;;;;;;;15.32;7.25;;;;;;;;;;5083709;28;20492;-67
2021/08/03 07:18:29;;;;;;;9.73;6.38;;;;;;;;;;5079685;28;20034;-66
2021/08/03 07:20:54;;;;;;;13.23;6.40;;;;;;;;;;5084657;28;20424;-66
2021/08/03 07:23:22;;;;;;;10.77;6.00;;;;;;;;;;5084553;28;20017;-66
2021/08/03 07:25:50;;;;;;;10.93;6.15;;;;;;;;;;5082040;28;20262;-67
2021/08/03 07:28:15;;;;;;;12.30;5.95;;;;;;;;;;5071990;28;20067;-66
2021/08/03 07:30:42;;;;;;;19.70;7.20;;;;;;;;;;5081158;28;20044;-66
2021/08/03 07:33:09;;;;;;;13.85;5.88;;;;;;;;;;5082632;28;20378;-66
2021/08/03 07:35:34;;;;;;;10.70;6.20;;;;;;;;;;5071926;28;20020;-67
2021/08/03 07:38:00;;;;;;;12.67;5.53;;;;;;;;;;5075809;28;20021;-67
2021/08/03 07:40:25;;;;;;;13.70;6.40;;;;;;;;;;5070736;28;20302;-67
2021/08/03 07:42:50;;;;;;;10.30;4.73;;;;;;;;;;5073877;28;20266;-67
2021/08/03 07:45:15;;;;;;;9.93;6.17;;;;;;;;;;5070142;28;20259;-67
2021/08/03 07:47:40;;;;;;;16.80;6.97;;;;;;;;;;5071341;28;20277;-67
2021/08/03 07:50:06;;;;;;;12.00;5.72;;;;;;;;;;5081010;28;20353;-67
2021/08/03 07:52:31;;;;;;;15.25;5.90;;;;;;;;;;5075342;28;20028;-67
2021/08/03 07:54:56;;;;;;;9.73;6.05;;;;;;;;;;5070472;28;20028;-67
2021/08/03 07:57:22;;;;;;;12.05;5.60;;;;;;;;;;5082756;28;20149;-67
2021/08/03 07:59:47;;;;;;;13.18;5.35;;;;;;;;;;5076252;28;20040;-67
2021/08/03 08:02:12;;;;;;;6.40;4.97;;;;;;;;;;5081164;28;20442;-66
2021/08/03 08:04:37;;;;;;;8.17;5.03;;;;;;;;;;5077545;28;20020;-67
2021/08/03 08:07:03;;;;;;;9.63;5.73;;;;;;;;;;5095311;28;20888;-66
2021/08/03 08:09:28;;;;;;;12.00;5.85;;;;;;;;;;5080639;28;20262;-68
2021/08/03 08:11:53;;;;;;;6.72;4.53;;;;;;;;;;5082292;28;20024;-67
2021/08/03 08:14:18;;;;;;;17.90;5.82;;;;;;;;;;5092426;28;20023;-67
2021/08/03 08:16:43;;;;;;;11.80;5.23;;;;;;;;;;5089884;28;20349;-67
2021/08/03 08:19:09;;;;;;;11.10;5.40;;;;;;;;;;5077884;28;20314;-67
2021/08/03 08:21:34;;;;;;;8.90;3.80;;;;;;;;;;5089537;28;20258;-67
2021/08/03 08:24:03;;;;;;;9.85;5.30;;;;;;;;;;5078122;28;20026;-67
2021/08/03 08:26:28;;;;;;;9.35;5.53;;;;;;;;;;5084646;28;20020;-67
2021/08/03 08:28:53;;;;;;;7.90;4.00;;;;;;;;;;5085090;28;20107;-67
2021/08/03 08:31:18;;;;;;;8.57;3.72;;;;;;;;;;5078733;28;20073;-67
2021/08/03 08:33:44;;;;;;;12.10;5.17;;;;;;;;;;5082523;28;20035;-67
2021/08/03 08:36:09;;;;;;;13.63;5.28;;;;;;;;;;5085154;28;20266;-67
2021/08/03 08:38:34;;;;;;;11.17;5.37;;;;;;;;;;5081550;28;20021;-67
2021/08/03 08:41:01;;;;;;;12.70;5.63;;;;;;;;;;5080729;28;20254;-67
2021/08/03 08:43:26;;;;;;;11.00;4.78;;;;;;;;;;5092588;28;20746;-67
2021/08/03 08:45:53;;;;;;;11.70;5.28;;;;;;;;;;5077060;28;20028;-66
2021/08/03 08:48:19;;;;;;;7.72;4.38;;;;;;;;;;5089393;28;20094;-67
2021/08/03 08:50:44;;;;;;;6.05;3.95;;;;;;;;;;5077925;28;20028;-67
2021/08/03 08:53:10;;;;;;;6.22;4.68;;;;;;;;;;5077486;28;20033;-67
2021/08/03 08:55:35;;;;;;;9.15;4.82;;;;;;;;;;5083149;28;20028;-67
2021/08/03 08:58:00;;;;;;;9.80;5.10;;;;;;;;;;5091835;28;20166;-67
2021/08/03 09:00:27;;;;;;;7.43;4.57;;;;;;;;;;5092452;28;20480;-67
2021/08/03 09:02:53;;;;;;;9.27;4.85;;;;;;;;;;5086179;28;20274;-67
2021/08/03 09:05:26;;;;;;;5.72;3.72;;;;;;;;;;5079982;28;20027;-67
2021/08/03 09:07:52;;;;;;;8.35;4.35;;;;;;;;;;5076385;28;20213;-67
2021/08/03 09:10:26;;;;;;;8.98;4.65;;;;;;;;;;5080346;28;20123;-67
2021/08/03 09:13:03;;;;;;;10.80;4.05;;;;;;;;;;5091221;28;20472;-67
2021/08/03 09:15:29;;;;;;;10.80;4.35;;;;;;;;;;5072789;28;20033;-67
2021/08/03 09:18:07;;;;;;;6.25;3.75;;;;;;;;;;5073455;28;20028;-67
2021/08/03 09:20:36;;;;;;;9.55;4.15;;;;;;;;;;5073456;28;20052;-67
2021/08/03 09:23:01;;;;;;;5.93;3.00;;;;;;;;;;5087710;28;20024;-67
2021/08/03 09:25:26;;;;;;;7.73;4.27;;;;;;;;;;5091305;28;20019;-67
2021/08/03 09:27:51;;;;;;;7.03;4.47;;;;;;;;;;5089908;28;20274;-67
2021/08/03 09:30:16;;;;;;;7.43;4.20;;;;;;;;;;5092432;28;20031;-67
2021/08/03 09:32:42;;;;;;;9.77;5.10;;;;;;;;;;5081328;28;20302;-67
2021/08/03 09:35:09;;;;;;;11.70;5.72;;;;;;;;;;5092253;28;20097;-67
2021/08/03 09:37:34;;;;;;;7.45;5.63;;;;;;;;;;5092277;22;20400;-67
2021/08/03 09:40:00;;;;;;;8.70;5.82;;;;;;;;;;5069907;28;20090;-67
2021/08/03 09:42:27;;;;;;;10.77;5.65;;;;;;;;;;5064056;28;20025;-65
2021/08/03 09:44:53;;;;;;;9.38;5.72;;;;;;;;;;5057165;28;20040;-64
2021/08/03 09:47:20;;;;;;;8.57;4.65;;;;;;;;;;5063121;28;20460;-64
2021/08/03 09:49:48;;;;;;;8.05;3.78;;;;;;;;;;5052244;28;20116;-64
2021/08/03 09:52:15;;;;;;;9.23;4.25;;;;;;;;;;5051947;28;20478;-65
2021/08/03 09:54:41;;;;;;;11.38;6.40;;;;;;;;;;5052501;28;20032;-65
2021/08/03 09:57:25;;;;;;;13.50;6.15;;;;;;;;;;5051677;28;20021;-67
2021/08/03 09:59:51;;;;;;;15.48;5.63;;;;;;;;;;5051673;28;20021;-67
2021/08/03 10:02:18;;;;;;;10.27;6.88;;;;;;;;;;5052388;28;20074;-67
2021/08/03 10:04:44;;;;;;;12.27;7.28;;;;;;;;;;5052081;28;20017;-66
2021/08/03 10:07:09;;;;;;;10.77;7.10;;;;;;;;;;5064019;28;20089;-67
2021/08/03 10:09:35;;;;;;;12.90;7.60;;;;;;;;;;5061997;28;20021;-67
2021/08/03 10:12:00;;;;;;;9.23;5.68;;;;;;;;;;5051675;28;20384;-66
2021/08/03 10:14:25;;;;;;;12.40;7.15;;;;;;;;;;5051929;28;20507;-67
2021/08/03 10:16:51;;;;;;;9.80;5.88;;;;;;;;;;5051147;28;20035;-67
2021/08/03 10:19:21;;;;;;;12.60;6.50;;;;;;;;;;5048187;28;20036;-67
2021/08/03 10:21:47;;;;;;;11.23;7.65;;;;;;;;;;5051805;28;20013;-67
2021/08/03 10:24:16;;;;;;;11.65;8.10;;;;;;;;;;5050827;28;20035;-67
2021/08/03 10:27:00;;;;;;;11.68;6.80;;;;;;;;;;5051207;28;20021;-67
2021/08/03 10:29:26;;;;;;;13.57;7.45;;;;;;;;;;5044199;28;20028;-67
2021/08/03 10:31:52;;;;;;;15.27;7.57;;;;;;;;;;5051310;28;20135;-68
2021/08/03 10:34:36;;;;;;;9.07;6.68;;;;;;;;;;5050768;28;20028;-67
2021/08/03 10:37:01;;;;;;;9.48;6.35;;;;;;;;;;5048824;28;20174;-67
2021/08/03 10:39:46;;;;;;;11.30;7.88;;;;;;;;;;5031043;28;20029;-67
2021/08/03 10:42:12;;;;;;;9.38;7.10;;;;;;;;;;5050391;28;20040;-69
2021/08/03 10:44:43;;;;;;;13.85;7.90;;;;;;;;;;5051238;28;20021;-67
2021/08/03 10:47:27;;;;;;;15.18;8.30;;;;;;;;;;5050599;28;20036;-67
2021/08/03 10:49:53;;;;;;;11.95;7.32;;;;;;;;;;5042898;28;20028;-66
2021/08/03 10:52:37;;;;;;;11.93;8.82;;;;;;;;;;5050322;28;20092;-67
2021/08/03 10:55:03;;;;;;;13.57;7.85;;;;;;;;;;5050681;28;20121;-67
2021/08/03 10:57:28;;;;;;;14.57;7.20;;;;;;;;;;5050897;28;20029;-67
2021/08/03 10:59:58;;;;;;;14.53;7.77;;;;;;;;;;5050241;28;20103;-67
2021/08/03 11:02:24;;;;;;;10.60;7.97;;;;;;;;;;5050250;28;20329;-66
2021/08/03 11:04:52;;;;;;;20.15;8.30;;;;;;;;;;5049140;28;20053;-67
2021/08/03 11:07:26;;;;;;;8.98;7.07;;;;;;;;;;5043659;28;20433;-67
2021/08/03 11:09:51;;;;;;;11.30;7.65;;;;;;;;;;5048617;28;20024;-68
2021/08/03 11:12:35;;;;;;;10.48;7.38;;;;;;;;;;5050532;28;20025;-67
2021/08/03 11:15:19;;;;;;;13.43;8.48;;;;;;;;;;5050329;28;20025;-67
2021/08/03 11:17:51;;;;;;;12.65;8.00;;;;;;;;;;5050120;28;20098;-67
2021/08/03 11:20:35;;;;;;;13.80;8.77;;;;;;;;;;5049952;28;20017;-67
2021/08/03 11:23:01;;;;;;;13.10;8.52;;;;;;;;;;5043672;28;20028;-67
2021/08/03 11:25:27;;;;;;;11.32;7.93;;;;;;;;;;5050098;28;20029;-67
2021/08/03 11:27:52;;;;;;;11.88;8.25;;;;;;;;;;5047841;28;20032;-67
2021/08/03 11:30:18;;;;;;;12.00;7.90;;;;;;;;;;5044212;28;20032;-67
2021/08/03 11:32:46;;;;;;;12.90;8.00;;;;;;;;;;5050002;28;20025;-69
2021/08/03 11:35:12;;;;;;;12.20;7.40;;;;;;;;;;5049627;28;20025;-67
2021/08/03 11:37:40;;;;;;;11.68;7.55;;;;;;;;;;5030942;28;20077;-64
2021/08/03 11:40:07;;;;;;;11.38;6.35;;;;;;;;;;5050072;28;20393;-65
2021/08/03 11:42:32;;;;;;;10.95;7.40;;;;;;;;;;5049598;28;20100;-66
2021/08/03 11:45:05;;;;;;;12.90;7.35;;;;;;;;;;5047407;28;20098;-65
2021/08/03 11:47:38;;;;;;;15.98;7.85;;;;;;;;;;5044962;28;20028;-64
2021/08/03 11:50:03;;;;;;;11.70;7.45;;;;;;;;;;5040967;28;20021;-64
2021/08/03 11:52:31;;;;;;;11.10;7.13;;;;;;;;;;5041063;28;20032;-64
2021/08/03 11:54:56;;;;;;;10.18;6.28;;;;;;;;;;5042431;28;20477;-64
2021/08/03 11:57:24;;;;;;;5.55;3.97;;;;;;;;;;5042864;28;20083;-65
2021/08/03 12:00:04;;;;;;;8.15;3.97;;;;;;;;;;5040412;28;20035;-65
2021/08/03 12:02:29;;;;;;;7.45;3.03;;;;;;;;;;5047981;28;20024;-64
2021/08/03 12:05:11;;;;;;;7.30;2.75;;;;;;;;;;5043197;28;20082;-65
2021/08/03 12:07:37;;;;;;;7.70;4.10;;;;;;;;;;5046876;28;20535;-66
2021/08/03 12:10:03;;;;;;;6.18;3.55;;;;;;;;;;5043264;28;20040;-68
2021/08/03 12:12:28;;;;;;;5.82;3.50;;;;;;;;;;5043893;28;20029;-67
2021/08/03 12:15:00;;;;;;;5.23;3.00;;;;;;;;;;5049688;28;20031;-68
2021/08/03 12:17:26;;;;;;;5.70;2.90;;;;;;;;;;5043993;28;20287;-69
2021/08/03 12:19:51;;;;;;;3.80;2.90;;;;;;;;;;5030694;28;20032;-69
2021/08/03 12:22:27;;;;;;;4.50;2.50;;;;;;;;;;5050118;28;20021;-68
2021/08/03 12:25:00;;;;;;;4.15;2.83;;;;;;;;;;5049200;28;20029;-68
2021/08/03 12:27:25;;;;;;;6.65;2.83;;;;;;;;;;5049190;28;20037;-68
2021/08/03 12:29:50;;;;;;;4.77;2.37;;;;;;;;;;5049276;28;20043;-68
2021/08/03 12:32:36;;;;;;;7.25;3.05;;;;;;;;;;5049797;28;20271;-68
2021/08/03 12:35:08;;;;;;;4.82;2.25;;;;;;;;;;5041244;28;20040;-68
2021/08/03 12:37:34;;;;;;;6.05;2.25;;;;;;;;;;5045172;28;20029;-68
2021/08/03 12:39:59;;;;;;;3.53;2.10;;;;;;;;;;5038345;28;20370;-68
2021/08/03 12:42:32;;;;;;;6.47;2.47;;;;;;;;;;5046413;28;20028;-68
2021/08/03 12:44:59;;;;;;;3.25;2.50;;;;;;;;;;5037114;28;20358;-65
2021/08/03 12:47:28;;;;;;;4.85;2.63;;;;;;;;;;5041109;28;20029;-65
2021/08/03 12:50:07;;;;;;;2.60;1.90;;;;;;;;;;5042479;28;20036;-65
2021/08/03 12:52:32;;;;;;;2.67;2.03;;;;;;;;;;5031343;28;20017;-68
2021/08/03 12:55:08;;;;;;;4.63;2.30;;;;;;;;;;5048947;28;20031;-64
2021/08/03 12:57:46;;;;;;;3.50;2.05;;;;;;;;;;5046850;28;20021;-65
2021/08/03 13:00:30;;;;;;;3.90;2.42;;;;;;;;;;5048560;28;20060;-66
2021/08/03 13:02:56;;;;;;;6.45;2.00;;;;;;;;;;5040471;28;20028;-66
2021/08/03 13:05:22;;;;;;;3.10;1.88;;;;;;;;;;5044969;28;20062;-68
2021/08/03 13:07:47;;;;;;;2.72;1.80;;;;;;;;;;5042782;28;20094;-65
2021/08/03 13:10:12;;;;;;;2.85;1.35;;;;;;;;;;5044592;28;20013;-68
2021/08/03 13:12:37;;;;;;;4.93;1.63;;;;;;;;;;5051070;28;20020;-65
2021/08/03 13:15:03;;;;;;;1.63;1.20;;;;;;;;;;5049987;28;20278;-66
2021/08/03 13:17:28;;;;;;;5.68;1.33;;;;;;;;;;5046805;28;20283;-64
2021/08/03 13:19:53;;;;;;;4.30;1.60;;;;;;;;;;5046716;28;20013;-65
2021/08/03 13:22:18;;;;;;;2.70;1.80;;;;;;;;;;5044908;28;20028;-64
2021/08/03 13:24:43;;;;;;;1.70;1.57;;;;;;;;;;5034160;28;20440;-64
2021/08/03 13:27:09;;;;;;;3.87;1.50;;;;;;;;;;5048439;28;20799;-65
2021/08/03 13:29:34;;;;;;;3.60;1.45;;;;;;;;;;5047313;28;20020;-64
2021/08/03 13:31:59;;;;;;;3.10;1.60;;;;;;;;;;5048485;28;20033;-64
2021/08/03 13:34:24;;;;;;;3.45;1.70;;;;;;;;;;5050893;28;20665;-65
2021/08/03 13:36:49;;;;;;;2.63;1.57;;;;;;;;;;5050222;28;20029;-65
2021/08/03 13:39:15;;;;;;;3.15;1.55;;;;;;;;;;5046701;28;20670;-64
2021/08/03 13:41:41;;;;;;;2.40;1.40;;;;;;;;;;5047328;28;20358;-65
2021/08/03 13:44:06;;;;;;;4.03;1.88;;;;;;;;;;5043351;28;20356;-65
2021/08/03 13:46:31;;;;;;;2.40;1.50;;;;;;;;;;5045783;28;20147;-65
2021/08/03 13:48:56;;;;;;;1.67;1.10;;;;;;;;;;5043616;28;20032;-66
2021/08/03 13:51:22;;;;;;;1.60;1.37;;;;;;;;;;5044868;28;20354;-64
2021/08/03 13:53:47;;;;;;;2.87;1.57;;;;;;;;;;5046096;28;20631;-65
2021/08/03 13:56:13;;;;;;;2.43;1.43;;;;;;;;;;5048713;28;20279;-64
2021/08/03 13:58:39;;;;;;;2.03;1.30;;;;;;;;;;5044875;28;20346;-65
2021/08/03 14:01:06;;;;;;;1.70;1.10;;;;;;;;;;5028235;28;20017;-65
2021/08/03 14:03:31;;;;;;;1.40;1.30;;;;;;;;;;5050557;28;20273;-65
2021/08/03 14:05:56;;;;;;;2.67;1.50;;;;;;;;;;5050751;28;20108;-67
2021/08/03 14:08:22;;;;;;;1.47;1.30;;;;;;;;;;5049679;28;20515;-66
2021/08/03 14:10:47;;;;;;;1.98;1.50;;;;;;;;;;5032140;28;20271;-66
2021/08/03 14:13:12;;;;;;;1.77;1.23;;;;;;;;;;5048599;28;20451;-66
2021/08/03 14:15:37;;;;;;;3.70;1.13;;;;;;;;;;5047982;28;20013;-65
2021/08/03 14:18:02;;;;;;;1.50;1.03;;;;;;;;;;5047254;28;20280;-66
2021/08/03 14:20:28;;;;;;;2.97;1.30;;;;;;;;;;5046462;28;20759;-67
2021/08/03 14:22:53;;;;;;;3.97;1.30;;;;;;;;;;5043709;28;20272;-65
2021/08/03 14:25:18;;;;;;;1.33;1.10;;;;;;;;;;5046031;28;20021;-64
2021/08/03 14:27:43;;;;;;;2.83;1.30;;;;;;;;;;5051338;28;20260;-66
2021/08/03 14:30:08;;;;;;;1.50;1.08;;;;;;;;;;5045401;28;20466;-67
2021/08/03 14:32:34;;;;;;;3.78;1.38;;;;;;;;;;5042973;28;20389;-65
2021/08/03 14:34:59;;;;;;;2.07;1.40;;;;;;;;;;5047273;28;20064;-64
2021/08/03 14:37:24;;;;;;;1.37;1.03;;;;;;;;;;5045956;28;20291;-65